createdAt,value
2024-02-13T00:01:42.215Z,100.00
2024-02-13T00:04:11.543Z,100.00
2024-02-13T00:06:39.697Z,100.00
2024-02-13T00:09:07.758Z,100.00
2024-02-13T00:11:36.224Z,100.00
2024-02-13T00:14:04.219Z,100.00
2024-02-13T00:16:32.363Z,100.00
2024-02-13T00:19:02.464Z,100.00
2024-02-13T00:21:30.830Z,100.00
2024-02-13T00:23:58.889Z,100.00
2024-02-13T00:26:27.567Z,100.00
2024-02-13T00:28:55.447Z,100.00
2024-02-13T00:31:23.720Z,100.00
2024-02-13T00:33:53.217Z,100.00
2024-02-13T00:36:23.508Z,100.00
2024-02-13T00:38:51.460Z,100.00
2024-02-13T00:41:20.021Z,100.00
2024-02-13T00:43:47.822Z,100.00
2024-02-13T00:46:15.673Z,100.00
2024-02-13T00:48:43.693Z,100.00
2024-02-13T00:51:12.184Z,100.00
2024-02-13T00:53:41.594Z,100.00
2024-02-13T00:56:09.612Z,100.00
2024-02-13T00:58:38.426Z,100.00
2024-02-13T01:01:06.539Z,100.00
2024-02-13T01:03:35.698Z,100.00
2024-02-13T01:06:04.627Z,100.00
2024-02-13T01:08:34.445Z,100.00
2024-02-13T01:11:04.273Z,100.00
2024-02-13T01:13:33.268Z,100.00
2024-02-13T01:16:04.454Z,100.00
2024-02-13T01:18:32.486Z,100.00
2024-02-13T01:21:00.745Z,100.00
2024-02-13T01:23:28.609Z,100.00
2024-02-13T01:25:57.900Z,100.00
2024-02-13T01:28:27.075Z,100.00
2024-02-13T01:30:55.464Z,100.00
2024-02-13T01:33:23.609Z,100.00
2024-02-13T01:35:52.131Z,100.00
2024-02-13T01:38:21.420Z,100.00
2024-02-13T01:40:49.389Z,100.00
2024-02-13T01:43:17.233Z,100.00
2024-02-13T01:45:49.285Z,100.00
2024-02-13T01:48:19.223Z,100.00
2024-02-13T01:50:48.329Z,100.00
2024-02-13T01:53:16.752Z,100.00
2024-02-13T01:55:45.277Z,100.00
2024-02-13T01:58:14.195Z,100.00
2024-02-13T02:00:43.254Z,100.00
2024-02-13T02:03:16.773Z,100.00
2024-02-13T02:05:45.184Z,100.00
2024-02-13T02:08:15.412Z,100.00
2024-02-13T02:10:45.671Z,100.00
2024-02-13T02:13:15.824Z,100.00
2024-02-13T02:15:44.087Z,100.00
2024-02-13T02:18:14.386Z,100.00
2024-02-13T02:20:42.465Z,100.00
2024-02-13T02:23:10.440Z,100.00
2024-02-13T02:25:40.014Z,100.00
2024-02-13T02:28:08.445Z,100.00
2024-02-13T02:30:36.263Z,100.00
2024-02-13T02:33:04.987Z,100.00
2024-02-13T02:35:32.999Z,100.00
2024-02-13T02:38:01.297Z,100.00
2024-02-13T02:40:29.262Z,100.00
2024-02-13T02:43:00.781Z,100.00
2024-02-13T02:45:28.944Z,100.00
2024-02-13T02:47:58.151Z,100.00
2024-02-13T02:50:26.618Z,100.00
2024-02-13T02:52:54.668Z,100.00
2024-02-13T02:55:23.343Z,100.00
2024-02-13T02:57:52.165Z,100.00
2024-02-13T03:00:23.317Z,100.00
2024-02-13T03:02:51.663Z,100.00
2024-02-13T03:05:19.983Z,100.00
2024-02-13T03:07:48.181Z,100.00
2024-02-13T03:10:16.097Z,100.00
2024-02-13T03:12:45.093Z,100.00
2024-02-13T03:15:13.697Z,100.00
2024-02-13T03:17:43.927Z,100.00
2024-02-13T03:20:14.043Z,100.00
2024-02-13T03:22:43.161Z,100.00
2024-02-13T03:25:11.622Z,100.00
2024-02-13T03:27:39.662Z,100.00
2024-02-13T03:30:11.580Z,100.00
2024-02-13T03:32:39.631Z,100.00
2024-02-13T03:35:09.666Z,100.00
2024-02-13T03:37:37.574Z,100.00
2024-02-13T03:40:09.936Z,100.00
2024-02-13T03:42:38.366Z,100.00
2024-02-13T03:45:06.629Z,100.00
2024-02-13T03:47:35.616Z,100.00
2024-02-13T03:50:03.722Z,100.00
2024-02-13T03:52:35.105Z,100.00
2024-02-13T03:55:04.229Z,100.00
2024-02-13T03:57:32.564Z,100.00
2024-02-13T04:00:00.861Z,100.00
2024-02-13T04:02:29.470Z,100.00
2024-02-13T04:04:57.328Z,100.00
2024-02-13T04:07:25.298Z,100.00
2024-02-13T04:09:54.504Z,100.00
2024-02-13T04:12:22.684Z,100.00
2024-02-13T04:14:51.214Z,100.00
2024-02-13T04:17:19.705Z,100.00
2024-02-13T04:19:47.897Z,100.00
2024-02-13T04:22:15.773Z,100.00
2024-02-13T04:24:43.635Z,100.00
2024-02-13T04:27:12.862Z,100.00
2024-02-13T04:29:43.958Z,100.00
2024-02-13T04:32:13.829Z,100.00
2024-02-13T04:34:43.216Z,100.00
2024-02-13T04:37:11.322Z,100.00
2024-02-13T04:39:39.540Z,100.00
2024-02-13T04:42:08.032Z,100.00
2024-02-13T04:44:37.801Z,100.00
2024-02-13T04:47:07.078Z,100.00
2024-02-13T04:49:35.162Z,100.00
2024-02-13T04:52:02.998Z,100.00
2024-02-13T04:54:31.875Z,100.00
2024-02-13T04:57:00.700Z,100.00
2024-02-13T04:59:36.297Z,100.00
2024-02-13T05:02:07.077Z,100.00
2024-02-13T05:04:52.589Z,100.00
2024-02-13T05:07:24.797Z,100.00
2024-02-13T05:09:54.175Z,100.00
2024-02-13T05:12:22.352Z,100.00
2024-02-13T05:14:50.266Z,100.00
2024-02-13T05:17:19.530Z,100.00
2024-02-13T05:19:50.186Z,100.00
2024-02-13T05:22:18.359Z,100.00
2024-02-13T05:24:46.957Z,100.00
2024-02-13T05:27:14.810Z,100.00
2024-02-13T05:29:43.052Z,100.00
2024-02-13T05:32:12.526Z,100.00
2024-02-13T05:34:42.667Z,100.00
2024-02-13T05:37:10.649Z,100.00
2024-02-13T05:39:38.485Z,100.00
2024-02-13T05:42:06.509Z,100.00
2024-02-13T05:44:35.128Z,100.00
2024-02-13T05:47:04.126Z,100.00
2024-02-13T05:49:34.152Z,100.00
2024-02-13T05:52:06.111Z,100.00
2024-02-13T05:54:34.885Z,100.00
2024-02-13T05:57:03.567Z,100.00
2024-02-13T05:59:33.000Z,100.00
2024-02-13T06:02:01.487Z,100.00
2024-02-13T06:04:33.965Z,100.00
2024-02-13T06:07:04.183Z,100.00
2024-02-13T06:09:32.412Z,100.00
2024-02-13T06:12:00.530Z,100.00
2024-02-13T06:14:28.691Z,100.00
2024-02-13T06:16:58.553Z,100.00
2024-02-13T06:19:27.103Z,100.00
2024-02-13T06:21:55.245Z,100.00
2024-02-13T06:24:25.078Z,100.00
2024-02-13T06:26:56.040Z,100.00
2024-02-13T06:29:25.683Z,100.00
2024-02-13T06:31:56.153Z,100.00
2024-02-13T06:34:24.508Z,100.00
2024-02-13T06:36:52.471Z,100.00
2024-02-13T06:39:22.417Z,100.00
2024-02-13T06:41:52.038Z,100.00
2024-02-13T06:44:23.524Z,100.00
2024-02-13T06:46:51.593Z,100.00
2024-02-13T06:49:19.548Z,100.00
2024-02-13T06:51:47.402Z,100.00
2024-02-13T06:54:15.250Z,100.00
2024-02-13T06:56:43.290Z,100.00
2024-02-13T06:59:12.671Z,100.00
2024-02-13T07:01:40.551Z,100.00
2024-02-13T07:04:08.508Z,100.00
2024-02-13T07:06:46.398Z,100.00
2024-02-13T07:09:24.092Z,100.00
2024-02-13T07:11:53.507Z,100.00
2024-02-13T07:14:25.637Z,100.00
2024-02-13T07:16:54.738Z,100.00
2024-02-13T07:19:23.287Z,100.00
2024-02-13T07:21:51.094Z,100.00
2024-02-13T07:24:19.011Z,100.00
2024-02-13T07:26:47.212Z,100.00
2024-02-13T07:29:16.797Z,100.00
2024-02-13T07:31:47.734Z,100.00
2024-02-13T07:34:15.794Z,100.00
2024-02-13T07:36:43.892Z,100.00
2024-02-13T07:39:12.191Z,100.00
2024-02-13T07:41:40.318Z,100.00
2024-02-13T07:44:08.193Z,100.00
2024-02-13T07:46:37.119Z,100.00
2024-02-13T07:49:06.424Z,100.00
2024-02-13T07:51:34.349Z,100.00
2024-02-13T07:54:02.282Z,100.00
2024-02-13T07:56:30.845Z,100.00
2024-02-13T07:58:59.337Z,100.00
2024-02-13T08:01:28.250Z,100.00
2024-02-13T08:03:56.418Z,100.00
2024-02-13T08:06:26.014Z,100.00
2024-02-13T08:08:54.386Z,100.00
2024-02-13T08:11:23.132Z,100.00
2024-02-13T08:13:51.185Z,100.00
2024-02-13T08:16:20.061Z,100.00
2024-02-13T08:18:51.378Z,100.00
2024-02-13T08:21:20.175Z,100.00
2024-02-13T08:23:49.603Z,100.00
2024-02-13T08:26:17.692Z,100.00
2024-02-13T08:28:46.273Z,100.00
2024-02-13T08:31:15.084Z,100.00
2024-02-13T08:33:45.626Z,100.00
2024-02-13T08:36:13.842Z,100.00
2024-02-13T08:38:44.634Z,100.00
2024-02-13T08:41:15.752Z,100.00
2024-02-13T08:43:44.450Z,100.00
2024-02-13T08:46:14.388Z,100.00
2024-02-13T08:48:42.491Z,100.00
2024-02-13T08:51:10.682Z,100.00
2024-02-13T08:53:39.264Z,100.00
2024-02-13T08:56:07.960Z,100.00
2024-02-13T08:58:37.242Z,100.00
2024-02-13T09:01:06.117Z,100.00
2024-02-13T09:03:35.093Z,100.00
2024-02-13T09:06:05.760Z,100.00
2024-02-13T09:08:34.861Z,100.00
2024-02-13T09:11:02.720Z,100.00
2024-02-13T09:13:31.058Z,100.00
2024-02-13T09:16:00.579Z,100.00
2024-02-13T09:18:28.629Z,100.00
2024-02-13T09:20:56.591Z,100.00
2024-02-13T09:23:28.839Z,100.00
2024-02-13T09:25:56.906Z,100.00
2024-02-13T09:28:24.778Z,100.00
2024-02-13T09:30:53.054Z,100.00
2024-02-13T09:33:24.537Z,100.00
2024-02-13T09:35:53.238Z,100.00
2024-02-13T09:38:21.209Z,100.00
2024-02-13T09:40:49.784Z,100.00
2024-02-13T09:43:19.251Z,100.00
2024-02-13T09:45:47.967Z,100.00
2024-02-13T09:48:22.416Z,100.00
2024-02-13T09:50:52.968Z,100.00
2024-02-13T09:53:25.930Z,100.00
2024-02-13T09:55:56.653Z,100.00
2024-02-13T09:58:24.774Z,100.00
2024-02-13T10:00:55.741Z,100.00
2024-02-13T10:03:25.514Z,100.00
2024-02-13T10:05:55.704Z,100.00
2024-02-13T10:08:29.097Z,100.00
2024-02-13T10:11:03.111Z,100.00
2024-02-13T10:13:36.416Z,100.00
2024-02-13T10:16:05.243Z,100.00
2024-02-13T10:18:34.769Z,100.00
2024-02-13T10:21:06.773Z,100.00
2024-02-13T10:23:36.308Z,100.00
2024-02-13T10:26:08.953Z,100.00
2024-02-13T10:28:36.891Z,100.00
2024-02-13T10:31:05.966Z,100.00
2024-02-13T10:33:42.152Z,100.00
2024-02-13T10:36:12.742Z,98.44
2024-02-13T10:38:41.724Z,99.00
2024-02-13T10:41:12.635Z,96.37
2024-02-13T10:43:43.669Z,98.55
2024-02-13T10:46:14.913Z,95.18
2024-02-13T10:48:53.131Z,91.99
2024-02-13T10:51:24.618Z,94.80
2024-02-13T10:53:52.605Z,95.07
2024-02-13T10:56:22.355Z,95.27
2024-02-13T10:58:53.020Z,92.65
2024-02-13T11:01:24.163Z,95.19
2024-02-13T11:03:54.873Z,93.98
2024-02-13T11:06:24.285Z,94.98
2024-02-13T11:08:52.755Z,95.77
2024-02-13T11:11:22.581Z,97.96
2024-02-13T11:13:50.988Z,95.42
2024-02-13T11:16:19.431Z,96.97
2024-02-13T11:18:50.267Z,96.91
2024-02-13T11:21:22.977Z,96.76
2024-02-13T11:24:01.109Z,93.51
2024-02-13T11:26:34.122Z,94.06
2024-02-13T11:29:12.147Z,93.14
2024-02-13T11:31:41.321Z,90.80
2024-02-13T11:34:11.439Z,94.22
2024-02-13T11:36:39.723Z,92.90
2024-02-13T11:39:09.579Z,91.66
2024-02-13T11:41:37.757Z,92.18
2024-02-13T11:44:08.894Z,92.02
2024-02-13T11:46:39.835Z,91.36
2024-02-13T11:49:11.068Z,89.59
2024-02-13T11:51:40.341Z,90.58
2024-02-13T11:54:10.637Z,89.11
2024-02-13T11:56:39.974Z,89.00
2024-02-13T11:59:08.687Z,89.13
2024-02-13T12:01:38.835Z,88.89
2024-02-13T12:04:13.083Z,89.80
2024-02-13T12:06:41.925Z,87.31
2024-02-13T12:09:11.928Z,87.62
2024-02-13T12:11:40.102Z,87.71
2024-02-13T12:14:10.255Z,89.23
2024-02-13T12:16:39.476Z,86.45
2024-02-13T12:19:09.453Z,87.20
2024-02-13T12:21:40.045Z,83.08
2024-02-13T12:24:10.860Z,85.04
2024-02-13T12:26:40.282Z,87.04
2024-02-13T12:29:16.424Z,85.99
2024-02-13T12:31:44.469Z,81.94
2024-02-13T12:34:17.947Z,85.47
2024-02-13T12:36:46.352Z,84.32
2024-02-13T12:39:18.012Z,84.59
2024-02-13T12:41:48.453Z,82.85
2024-02-13T12:44:16.723Z,81.66
2024-02-13T12:46:47.132Z,80.90
2024-02-13T12:49:17.817Z,80.29
2024-02-13T12:51:46.030Z,79.80
2024-02-13T12:54:15.477Z,80.24
2024-02-13T12:56:43.488Z,78.57
2024-02-13T12:59:13.795Z,79.18
2024-02-13T13:01:45.901Z,75.15
2024-02-13T13:04:15.263Z,75.14
2024-02-13T13:06:45.515Z,76.99
2024-02-13T13:09:23.225Z,73.97
2024-02-13T13:11:56.017Z,75.59
2024-02-13T13:14:27.858Z,75.98
2024-02-13T13:16:57.654Z,74.32
2024-02-13T13:19:28.634Z,76.09
2024-02-13T13:21:57.455Z,76.19
2024-02-13T13:24:25.754Z,76.19
2024-02-13T13:26:56.178Z,75.98
2024-02-13T13:29:25.881Z,75.73
2024-02-13T13:31:53.867Z,74.12
2024-02-13T13:34:25.195Z,72.88
2024-02-13T13:36:54.503Z,72.58
2024-02-13T13:39:29.532Z,74.66
2024-02-13T13:41:58.889Z,74.16
2024-02-13T13:44:28.913Z,74.12
2024-02-13T13:46:56.839Z,75.47
2024-02-13T13:49:25.935Z,74.27
2024-02-13T13:51:53.761Z,75.11
2024-02-13T13:54:23.208Z,75.52
2024-02-13T13:56:51.338Z,75.55
2024-02-13T13:59:19.519Z,76.39
2024-02-13T14:01:48.759Z,76.70
2024-02-13T14:04:16.712Z,74.55
2024-02-13T14:06:44.991Z,75.56
2024-02-13T14:09:12.791Z,74.75
2024-02-13T14:11:41.170Z,76.38
2024-02-13T14:14:10.004Z,77.34
2024-02-13T14:16:37.800Z,77.35
2024-02-13T14:19:07.790Z,76.87
2024-02-13T14:21:37.714Z,77.95
2024-02-13T14:24:08.917Z,77.43
2024-02-13T14:26:36.734Z,77.37
2024-02-13T14:29:05.247Z,78.34
2024-02-13T14:31:33.154Z,79.80
2024-02-13T14:34:01.215Z,79.78
2024-02-13T14:36:30.475Z,80.45
2024-02-13T14:38:58.599Z,79.75
2024-02-13T14:41:26.557Z,79.27
2024-02-13T14:43:55.021Z,80.60
2024-02-13T14:46:23.053Z,81.95
2024-02-13T14:48:51.113Z,82.58
2024-02-13T14:51:19.836Z,82.50
2024-02-13T14:53:50.283Z,82.43
2024-02-13T14:56:18.464Z,82.58
2024-02-13T14:58:46.909Z,83.15
2024-02-13T15:01:14.861Z,82.96
2024-02-13T15:03:43.567Z,82.93
2024-02-13T15:06:11.533Z,82.31
2024-02-13T15:08:41.140Z,82.93
2024-02-13T15:11:12.065Z,82.59
2024-02-13T15:13:40.489Z,83.25
2024-02-13T15:16:08.926Z,83.66
2024-02-13T15:18:38.122Z,83.31
2024-02-13T15:21:07.256Z,82.71
2024-02-13T15:23:35.186Z,83.00
2024-02-13T15:26:05.940Z,83.39
2024-02-13T15:28:36.537Z,83.29
2024-02-13T15:31:05.418Z,83.22
2024-02-13T15:33:33.700Z,83.60
2024-02-13T15:36:06.088Z,83.55
2024-02-13T15:38:51.823Z,83.57
2024-02-13T15:41:37.823Z,84.17
2024-02-13T15:44:33.353Z,83.74
2024-02-13T15:47:04.969Z,84.95
2024-02-13T15:49:33.515Z,85.44
2024-02-13T15:52:02.105Z,86.07
2024-02-13T15:54:31.784Z,86.41
2024-02-13T15:56:59.789Z,86.10
2024-02-13T15:59:30.580Z,86.81
2024-02-13T16:01:59.317Z,87.07
2024-02-13T16:04:27.461Z,87.50
2024-02-13T16:06:56.835Z,87.91
2024-02-13T16:09:26.961Z,87.80
2024-02-13T16:11:54.901Z,88.06
2024-02-13T16:14:22.874Z,88.13
2024-02-13T16:16:52.121Z,88.15
2024-02-13T16:19:20.059Z,88.85
2024-02-13T16:21:47.962Z,88.33
2024-02-13T16:24:16.160Z,88.83
2024-02-13T16:26:44.855Z,89.62
2024-02-13T16:29:12.688Z,89.45
2024-02-13T16:31:40.479Z,89.36
2024-02-13T16:34:09.872Z,89.71
2024-02-13T16:36:37.938Z,90.17
2024-02-13T16:39:06.218Z,90.14
2024-02-13T16:41:34.157Z,90.64
2024-02-13T16:44:02.075Z,91.20
2024-02-13T16:46:33.549Z,90.80
2024-02-13T16:49:01.890Z,90.01
2024-02-13T16:51:32.608Z,90.46
2024-02-13T16:54:00.653Z,90.69
2024-02-13T16:56:28.548Z,91.13
2024-02-13T16:58:57.249Z,91.34
2024-02-13T17:01:25.489Z,91.99
2024-02-13T17:03:54.977Z,93.08
2024-02-13T17:06:23.157Z,93.97
2024-02-13T17:08:52.606Z,94.36
2024-02-13T17:11:21.335Z,94.43
2024-02-13T17:13:49.242Z,95.27
2024-02-13T17:16:17.936Z,95.73
2024-02-13T17:18:45.985Z,96.47
2024-02-13T17:21:14.007Z,96.56
2024-02-13T17:23:41.925Z,97.16
2024-02-13T17:26:11.161Z,97.54
2024-02-13T17:28:39.881Z,97.98
2024-02-13T17:31:07.678Z,98.37
2024-02-13T17:33:36.173Z,98.21
2024-02-13T17:36:04.872Z,98.75
2024-02-13T17:38:35.913Z,99.45
2024-02-13T17:41:05.923Z,99.77
2024-02-13T17:43:35.549Z,99.86
2024-02-13T17:46:03.384Z,100.00
2024-02-13T17:48:31.870Z,100.00
2024-02-13T17:50:59.894Z,99.77
2024-02-13T17:53:27.755Z,99.75
2024-02-13T17:55:56.151Z,100.00
2024-02-13T17:58:23.935Z,99.36
2024-02-13T18:00:54.168Z,98.89
2024-02-13T18:03:22.129Z,99.50
2024-02-13T18:05:50.887Z,98.53
2024-02-13T18:08:19.215Z,98.63
2024-02-13T18:10:47.099Z,98.49
2024-02-13T18:13:15.071Z,98.00
2024-02-13T18:15:43.057Z,97.99
2024-02-13T18:18:12.801Z,97.71
2024-02-13T18:20:42.973Z,97.77
2024-02-13T18:23:11.394Z,97.67
2024-02-13T18:25:39.240Z,96.75
2024-02-13T18:28:07.832Z,96.96
2024-02-13T18:30:35.901Z,97.36
2024-02-13T18:33:04.563Z,96.62
2024-02-13T18:35:33.955Z,97.19
2024-02-13T18:38:01.830Z,97.19
2024-02-13T18:40:29.746Z,97.33
2024-02-13T18:42:57.991Z,97.12
2024-02-13T18:45:28.012Z,97.04
2024-02-13T18:47:55.927Z,96.58
2024-02-13T18:50:23.844Z,96.28
2024-02-13T18:52:53.339Z,96.23
2024-02-13T18:55:22.138Z,96.12
2024-02-13T18:57:52.740Z,96.13
2024-02-13T19:00:20.611Z,96.00
2024-02-13T19:02:49.834Z,95.90
2024-02-13T19:05:18.574Z,96.02
2024-02-13T19:07:46.730Z,96.00
2024-02-13T19:10:15.953Z,96.02
2024-02-13T19:12:44.267Z,95.80
2024-02-13T19:15:16.241Z,96.31
2024-02-13T19:17:44.596Z,96.44
2024-02-13T19:20:14.943Z,97.24
2024-02-13T19:22:42.839Z,97.13
2024-02-13T19:25:10.853Z,96.77
2024-02-13T19:27:40.337Z,97.27
2024-02-13T19:30:11.397Z,96.75
2024-02-13T19:32:40.949Z,97.13
2024-02-13T19:35:10.634Z,96.50
2024-02-13T19:37:38.544Z,96.22
2024-02-13T19:40:08.314Z,96.32
2024-02-13T19:42:36.446Z,96.01
2024-02-13T19:45:06.635Z,96.00
2024-02-13T19:47:35.727Z,96.08
2024-02-13T19:50:03.922Z,96.02
2024-02-13T19:52:31.840Z,96.27
2024-02-13T19:54:59.675Z,96.56
2024-02-13T19:57:28.181Z,96.37
2024-02-13T19:59:56.321Z,96.78
2024-02-13T20:02:26.678Z,96.70
2024-02-13T20:04:58.403Z,96.93
2024-02-13T20:07:26.501Z,97.74
2024-02-13T20:09:55.595Z,97.60
2024-02-13T20:12:25.610Z,97.53
2024-02-13T20:14:53.912Z,97.58
2024-02-13T20:17:22.043Z,98.02
2024-02-13T20:19:51.615Z,98.66
2024-02-13T20:22:20.518Z,99.86
2024-02-13T20:24:48.835Z,100.00
2024-02-13T20:27:16.672Z,100.00
2024-02-13T20:29:45.085Z,100.00
2024-02-13T20:32:15.228Z,100.00
2024-02-13T20:34:43.960Z,100.00
2024-02-13T20:37:15.660Z,100.00
2024-02-13T20:39:43.591Z,100.00
2024-02-13T20:42:11.429Z,99.94
2024-02-13T20:44:40.561Z,100.00
2024-02-13T20:47:08.500Z,99.73
2024-02-13T20:52:05.866Z,99.96
2024-02-13T20:54:35.081Z,99.56
2024-02-13T20:57:02.930Z,99.50
2024-02-13T20:59:31.248Z,98.92
2024-02-13T21:02:02.660Z,99.77
2024-02-13T21:04:30.863Z,99.25
2024-02-13T21:07:00.880Z,99.93
2024-02-13T21:09:28.729Z,99.53
2024-02-13T21:11:57.882Z,99.59
2024-02-13T21:14:27.264Z,99.65
2024-02-13T21:16:55.085Z,99.75
2024-02-13T21:19:23.827Z,99.98
2024-02-13T21:22:09.322Z,99.95
2024-02-13T21:24:37.169Z,100.00
2024-02-13T21:27:06.864Z,100.00
2024-02-13T21:29:34.925Z,100.00
2024-02-13T21:32:04.178Z,100.00
2024-02-13T21:34:32.188Z,100.00
2024-02-13T21:37:00.094Z,100.00
2024-02-13T21:39:28.443Z,100.00
2024-02-13T21:41:56.306Z,100.00
2024-02-13T21:44:26.936Z,100.00
2024-02-13T21:46:56.641Z,100.00
2024-02-13T21:49:25.236Z,100.00
2024-02-13T21:51:53.984Z,100.00
2024-02-13T21:54:21.970Z,100.00
2024-02-13T21:56:50.547Z,100.00
2024-02-13T21:59:18.433Z,100.00
2024-02-13T22:01:47.557Z,100.00
2024-02-13T22:04:16.069Z,100.00
2024-02-13T22:06:44.501Z,100.00
2024-02-13T22:09:13.425Z,100.00
2024-02-13T22:11:43.068Z,100.00
2024-02-13T22:14:11.539Z,100.00
2024-02-13T22:16:39.319Z,100.00
2024-02-13T22:19:08.702Z,100.00
2024-02-13T22:21:36.803Z,100.00
2024-02-13T22:24:07.513Z,100.00
2024-02-13T22:26:39.266Z,100.00
2024-02-13T22:29:08.513Z,100.00
2024-02-13T22:31:36.792Z,100.00
2024-02-13T22:34:07.076Z,100.00
2024-02-13T22:36:36.514Z,100.00
2024-02-13T22:39:04.534Z,100.00
2024-02-13T22:41:32.575Z,100.00
2024-02-13T22:44:01.396Z,100.00
2024-02-13T22:46:29.188Z,100.00
2024-02-13T22:48:57.122Z,100.00
2024-02-13T22:51:25.119Z,100.00
2024-02-13T22:53:54.342Z,100.00
2024-02-13T22:56:22.473Z,100.00
2024-02-13T22:58:51.734Z,100.00
2024-02-13T23:01:19.577Z,100.00
2024-02-13T23:03:47.969Z,100.00
2024-02-13T23:06:16.159Z,100.00
2024-02-13T23:08:44.166Z,100.00
2024-02-13T23:11:13.440Z,100.00
2024-02-13T23:13:45.729Z,100.00
2024-02-13T23:16:17.853Z,100.00
2024-02-13T23:18:45.882Z,100.00
2024-02-13T23:21:14.023Z,100.00
2024-02-13T23:23:42.003Z,100.00
2024-02-13T23:26:10.089Z,100.00
2024-02-13T23:28:48.712Z,100.00
2024-02-13T23:31:24.144Z,100.00
2024-02-13T23:33:52.127Z,100.00
2024-02-13T23:36:20.120Z,100.00
2024-02-13T23:38:48.520Z,100.00
2024-02-13T23:41:17.135Z,100.00
2024-02-13T23:43:46.765Z,100.00
2024-02-13T23:46:14.607Z,100.00
2024-02-13T23:48:42.676Z,100.00
2024-02-13T23:51:10.956Z,100.00
2024-02-13T23:53:38.898Z,100.00
2024-02-13T23:56:07.784Z,100.00
2024-02-13T23:58:35.730Z,100.00
